Time;durP1;ratioP1;P1;durP2;ratioP2;P2;SDS_P1;SDS_P2;PMS_P1;PMS_P2;Temp;Humidity;BMP_temperature;BMP_pressure;BME280_temperature;BME280_humidity;BME280_pressure;Samples;Min_cycle;Max_cycle;Signal;HPM_P1;HPM_P2
2022/07/07 00:01:40;;;;;;;6.70;3.65;;;18.00;99.90;;;;;;5049157;28;20032;-76
2022/07/07 00:04:08;;;;;;;7.45;3.53;;;18.00;99.90;;;;;;5041304;28;20025;-76
2022/07/07 00:06:34;;;;;;;6.22;3.65;;;18.00;99.90;;;;;;5045176;28;20091;-76
2022/07/07 00:09:00;;;;;;;6.88;3.00;;;18.00;99.90;;;;;;5048018;28;20037;-75
2022/07/07 00:11:26;;;;;;;5.50;3.28;;;18.00;99.90;;;;;;5036510;28;20132;-75
2022/07/07 00:13:52;;;;;;;4.50;3.15;;;18.00;99.90;;;;;;5039222;28;20021;-74
2022/07/07 00:16:18;;;;;;;4.57;3.08;;;18.00;99.90;;;;;;5037664;28;20087;-74
2022/07/07 00:18:44;;;;;;;6.05;3.53;;;18.00;99.90;;;;;;5044193;28;20025;-74
2022/07/07 00:21:09;;;;;;;5.70;3.58;;;18.00;99.90;;;;;;5034114;28;20040;-74
2022/07/07 00:23:35;;;;;;;5.93;2.92;;;17.90;99.90;;;;;;5035025;28;20474;-74
2022/07/07 00:26:01;;;;;;;6.05;3.47;;;17.90;99.90;;;;;;5034535;28;20033;-74
2022/07/07 00:28:26;;;;;;;5.40;3.40;;;17.90;99.90;;;;;;5048679;28;20087;-74
2022/07/07 00:30:52;;;;;;;5.65;3.95;;;18.00;99.90;;;;;;5046765;28;20064;-74
2022/07/07 00:33:17;;;;;;;6.20;3.53;;;17.90;99.90;;;;;;5043863;28;20503;-74
2022/07/07 00:35:43;;;;;;;5.15;2.95;;;18.00;99.90;;;;;;5030849;28;20064;-75
2022/07/07 00:38:08;;;;;;;5.65;3.65;;;18.00;99.90;;;;;;5032584;28;20184;-74
2022/07/07 00:40:34;;;;;;;11.90;4.10;;;18.00;99.90;;;;;;5048664;28;20029;-74
2022/07/07 00:43:00;;;;;;;6.00;3.13;;;18.00;99.90;;;;;;5042569;28;20028;-75
2022/07/07 00:45:26;;;;;;;6.13;3.72;;;18.00;99.90;;;;;;5038874;28;20053;-75
2022/07/07 00:47:52;;;;;;;6.05;4.35;;;18.00;99.90;;;;;;5035750;28;20017;-74
2022/07/07 00:50:18;;;;;;;6.70;4.00;;;18.00;99.90;;;;;;5033064;28;20044;-74
2022/07/07 00:52:45;;;;;;;6.70;3.70;;;18.00;99.90;;;;;;5041383;28;20043;-75
2022/07/07 00:55:11;;;;;;;6.10;3.97;;;18.10;99.90;;;;;;5049360;28;20515;-74
2022/07/07 00:57:36;;;;;;;7.65;3.80;;;18.00;99.90;;;;;;5038689;28;20033;-74
2022/07/07 01:00:12;;;;;;;10.40;4.45;;;18.00;99.90;;;;;;5042803;28;20071;-74
2022/07/07 01:02:38;;;;;;;6.45;3.95;;;18.00;99.90;;;;;;5038417;28;20136;-74
2022/07/07 01:05:06;;;;;;;9.15;3.83;;;18.00;99.90;;;;;;5031605;28;20108;-74
2022/07/07 01:07:32;;;;;;;9.15;4.10;;;18.00;99.90;;;;;;5038749;28;20112;-73
2022/07/07 01:09:58;;;;;;;5.70;3.63;;;18.00;99.90;;;;;;5035551;28;20038;-74
2022/07/07 01:12:25;;;;;;;6.70;4.00;;;18.10;99.90;;;;;;5045921;28;20030;-74
2022/07/07 01:14:50;;;;;;;7.22;3.97;;;18.10;99.90;;;;;;5039656;28;20021;-74
2022/07/07 01:17:16;;;;;;;8.45;3.70;;;18.10;99.90;;;;;;5037099;28;20106;-75
2022/07/07 01:19:41;;;;;;;6.35;3.38;;;18.10;99.90;;;;;;5046793;28;20017;-74
2022/07/07 01:22:12;;;;;;;6.07;2.88;;;18.20;99.90;;;;;;5038146;28;20037;-74
2022/07/07 01:24:38;;;;;;;5.78;3.58;;;18.20;99.90;;;;;;5047792;28;20550;-74
2022/07/07 01:27:15;;;;;;;9.63;3.80;;;18.20;99.90;;;;;;5049217;28;20108;-75
2022/07/07 01:29:44;;;;;;;8.02;3.88;;;18.20;99.90;;;;;;5040384;28;20057;-75
2022/07/07 01:32:09;;;;;;;8.73;4.43;;;18.20;99.90;;;;;;5039890;28;20036;-74
2022/07/07 01:34:36;;;;;;;12.02;4.68;;;18.20;99.90;;;;;;5035812;28;20032;-74
2022/07/07 01:37:01;;;;;;;7.68;4.72;;;18.10;99.90;;;;;;5034417;28;20029;-75
2022/07/07 01:39:28;;;;;;;7.03;4.60;;;18.10;99.90;;;;;;5047683;28;20432;-75
2022/07/07 01:41:54;;;;;;;8.25;4.15;;;18.10;99.90;;;;;;5048767;28;20572;-74
2022/07/07 01:44:19;;;;;;;8.32;4.25;;;18.00;99.90;;;;;;5038644;28;20116;-74
2022/07/07 01:46:45;;;;;;;10.07;4.93;;;18.00;99.90;;;;;;5031944;28;20022;-75
2022/07/07 01:49:11;;;;;;;9.50;4.32;;;18.00;99.90;;;;;;5043450;28;20438;-75
2022/07/07 01:51:36;;;;;;;7.72;4.43;;;18.00;99.90;;;;;;5038808;28;20042;-75
2022/07/07 01:54:02;;;;;;;11.23;4.10;;;17.90;99.90;;;;;;5045791;28;20029;-75
2022/07/07 01:56:28;;;;;;;6.90;4.15;;;17.90;99.90;;;;;;5039142;28;20080;-74
2022/07/07 01:58:53;;;;;;;6.18;4.03;;;17.90;99.90;;;;;;5039533;28;20492;-74
2022/07/07 02:01:19;;;;;;;6.90;3.90;;;17.90;99.90;;;;;;5032120;28;20033;-75
2022/07/07 02:03:45;;;;;;;8.80;4.03;;;17.90;99.90;;;;;;5043734;28;20084;-74
2022/07/07 02:06:10;;;;;;;8.15;3.20;;;17.90;99.90;;;;;;5040458;28;20548;-75
2022/07/07 02:08:36;;;;;;;7.05;3.35;;;17.90;99.90;;;;;;5045324;28;20052;-74
2022/07/07 02:11:13;;;;;;;5.22;3.22;;;17.90;99.90;;;;;;5035646;28;20063;-75
2022/07/07 02:13:47;;;;;;;5.93;1.90;;;17.90;99.90;;;;;;5039622;28;20428;-74
2022/07/07 02:16:14;;;;;;;7.03;1.70;;;17.90;99.90;;;;;;5031648;28;20044;-74
2022/07/07 02:18:41;;;;;;;3.55;1.30;;;18.00;99.90;;;;;;5043602;28;20025;-75
2022/07/07 02:21:09;;;;;;;5.35;1.60;;;18.00;99.90;;;;;;5045019;28;20062;-75
2022/07/07 02:23:36;;;;;;;3.75;1.30;;;18.00;99.90;;;;;;5039683;28;20038;-74
2022/07/07 02:26:02;;;;;;;6.35;1.13;;;18.00;99.90;;;;;;5045920;28;20469;-76
2022/07/07 02:28:28;;;;;;;3.05;1.33;;;18.00;99.90;;;;;;5043429;28;20034;-74
2022/07/07 02:30:54;;;;;;;4.00;1.40;;;18.00;99.90;;;;;;5031166;28;20049;-75
2022/07/07 02:33:20;;;;;;;3.67;1.00;;;18.00;99.90;;;;;;5038706;28;20038;-75
2022/07/07 02:35:47;;;;;;;3.17;1.13;;;18.00;99.90;;;;;;5035794;28;20056;-75
2022/07/07 02:38:13;;;;;;;3.97;1.10;;;18.00;99.90;;;;;;5041844;28;20573;-74
2022/07/07 02:40:38;;;;;;;1.10;0.52;;;18.00;99.90;;;;;;5036906;28;20131;-74
2022/07/07 02:43:04;;;;;;;1.88;0.50;;;18.00;99.90;;;;;;5033320;28;20061;-75
2022/07/07 02:45:29;;;;;;;1.88;0.35;;;17.90;99.90;;;;;;5037891;28;20398;-75
2022/07/07 02:47:55;;;;;;;1.20;0.30;;;17.70;99.90;;;;;;5034124;28;20044;-75
2022/07/07 02:50:21;;;;;;;3.63;0.43;;;17.50;99.90;;;;;;5030763;28;20025;-75
2022/07/07 02:52:46;;;;;;;2.35;0.50;;;17.30;99.90;;;;;;5043154;28;20057;-75
2022/07/07 02:55:12;;;;;;;2.47;0.73;;;17.00;99.90;;;;;;5037822;28;20111;-75
2022/07/07 02:57:37;;;;;;;4.88;0.70;;;16.80;99.90;;;;;;5035301;28;20053;-75
2022/07/07 03:00:08;;;;;;;6.13;0.90;;;16.70;99.90;;;;;;5041318;28;20033;-74
2022/07/07 03:02:34;;;;;;;2.25;0.82;;;16.60;99.90;;;;;;5041293;28;20028;-74
2022/07/07 03:05:00;;;;;;;2.25;0.70;;;16.60;99.90;;;;;;5044660;28;20029;-74
2022/07/07 03:07:26;;;;;;;4.68;0.90;;;16.50;99.90;;;;;;5030030;28;20120;-74
2022/07/07 03:09:52;;;;;;;4.80;0.80;;;16.50;99.90;;;;;;5048526;28;20469;-74
2022/07/07 03:12:17;;;;;;;4.38;0.68;;;16.50;99.90;;;;;;5041913;28;20043;-75
2022/07/07 03:14:43;;;;;;;5.63;0.77;;;16.60;99.90;;;;;;5030827;28;20061;-75
2022/07/07 03:17:08;;;;;;;3.70;0.80;;;16.60;99.90;;;;;;5041207;28;20037;-75
2022/07/07 03:19:34;;;;;;;2.13;0.90;;;16.60;99.90;;;;;;5037618;28;20385;-74
2022/07/07 03:22:01;;;;;;;4.25;1.00;;;16.60;99.90;;;;;;5031579;28;20029;-75
2022/07/07 03:24:29;;;;;;;2.15;0.90;;;16.60;99.90;;;;;;5032788;28;20079;-75
2022/07/07 03:26:54;;;;;;;3.50;1.00;;;16.60;99.90;;;;;;5041426;28;20025;-74
2022/07/07 03:29:20;;;;;;;3.28;0.93;;;16.60;99.90;;;;;;5035287;28;20374;-74
2022/07/07 03:31:45;;;;;;;4.18;1.40;;;16.60;99.90;;;;;;5038205;28;20046;-75
2022/07/07 03:34:11;;;;;;;2.70;1.00;;;16.60;99.90;;;;;;5036130;28;20021;-75
2022/07/07 03:36:36;;;;;;;3.47;1.00;;;16.60;99.90;;;;;;5031876;28;20033;-74
2022/07/07 03:39:02;;;;;;;3.67;0.93;;;16.70;99.90;;;;;;5041919;28;20057;-75
2022/07/07 03:41:27;;;;;;;4.30;1.13;;;16.70;99.90;;;;;;5037558;28;20041;-74
2022/07/07 03:43:53;;;;;;;2.83;1.23;;;16.70;99.90;;;;;;5031567;28;20041;-75
2022/07/07 03:46:18;;;;;;;7.38;1.27;;;16.70;99.90;;;;;;5034863;28;20242;-75
2022/07/07 03:48:44;;;;;;;4.32;1.40;;;16.70;99.90;;;;;;5040551;28;20049;-75
2022/07/07 03:51:09;;;;;;;3.47;1.20;;;16.70;99.90;;;;;;5048192;28;20037;-74
2022/07/07 03:53:35;;;;;;;3.63;1.30;;;16.70;99.90;;;;;;5041154;28;20045;-75
2022/07/07 03:56:00;;;;;;;5.28;1.38;;;16.70;99.90;;;;;;5035752;28;20377;-74
2022/07/07 03:58:26;;;;;;;3.70;1.33;;;16.70;99.90;;;;;;5045744;28;20025;-74
2022/07/07 04:00:52;;;;;;;2.60;1.15;;;16.70;99.90;;;;;;5034218;28;20041;-75
2022/07/07 04:03:17;;;;;;;4.40;1.67;;;16.70;99.90;;;;;;5035775;28;20029;-75
2022/07/07 04:05:43;;;;;;;3.40;1.17;;;16.70;99.90;;;;;;5038093;28;20102;-74
2022/07/07 04:08:09;;;;;;;6.53;1.70;;;16.70;99.90;;;;;;5037631;28;20028;-74
2022/07/07 04:10:34;;;;;;;4.38;2.00;;;16.70;99.90;;;;;;5039342;28;20033;-74
2022/07/07 04:13:00;;;;;;;4.53;1.45;;;16.70;99.90;;;;;;5035168;28;20029;-74
2022/07/07 04:15:25;;;;;;;3.70;1.23;;;16.70;99.90;;;;;;5029676;28;20029;-74
2022/07/07 04:17:51;;;;;;;5.18;1.63;;;16.70;99.90;;;;;;5036461;28;20120;-74
2022/07/07 04:20:16;;;;;;;6.95;1.90;;;16.70;99.90;;;;;;5037433;28;20101;-75
2022/07/07 04:22:42;;;;;;;3.75;1.50;;;16.70;99.90;;;;;;5049585;28;20028;-75
2022/07/07 04:25:08;;;;;;;3.63;1.02;;;16.70;99.90;;;;;;5050320;28;20075;-76
2022/07/07 04:27:34;;;;;;;7.80;1.38;;;16.70;99.90;;;;;;5044219;28;20422;-76
2022/07/07 04:29:59;;;;;;;3.88;1.15;;;16.70;99.90;;;;;;5040546;28;20061;-76
2022/07/07 04:32:25;;;;;;;5.28;1.45;;;16.70;99.90;;;;;;5033443;28;20041;-75
2022/07/07 04:34:50;;;;;;;5.25;1.05;;;16.70;99.90;;;;;;5039481;28;20040;-74
2022/07/07 04:37:16;;;;;;;7.57;1.27;;;16.70;99.90;;;;;;5032752;28;20128;-75
2022/07/07 04:39:41;;;;;;;2.85;0.90;;;16.70;99.90;;;;;;5045958;28;20048;-74
2022/07/07 04:42:07;;;;;;;2.78;1.05;;;16.70;99.90;;;;;;5033844;28;20474;-74
2022/07/07 04:44:34;;;;;;;4.63;1.50;;;16.70;99.90;;;;;;5036597;28;20036;-76
2022/07/07 04:46:59;;;;;;;5.45;1.00;;;16.70;99.90;;;;;;5030535;28;20120;-75
2022/07/07 04:52:40;;;;;;;3.78;1.05;;;16.70;99.90;;;;;;4991674;22;20089;-75
2022/07/07 04:55:08;;;;;;;3.60;1.02;;;16.70;99.90;;;;;;4989061;28;20677;-76
2022/07/07 04:57:34;;;;;;;2.90;1.17;;;16.80;99.90;;;;;;4990496;28;20031;-75
2022/07/07 04:59:59;;;;;;;2.85;0.95;;;16.80;99.90;;;;;;4980752;28;20026;-76
2022/07/07 05:02:25;;;;;;;4.63;0.77;;;16.80;99.90;;;;;;4986112;28;20037;-76
2022/07/07 05:04:51;;;;;;;4.50;0.77;;;16.80;99.90;;;;;;4982548;28;20459;-76
2022/07/07 05:07:17;;;;;;;3.67;0.98;;;16.80;99.90;;;;;;4994016;28;20110;-76
2022/07/07 05:09:43;;;;;;;2.25;0.50;;;16.90;99.90;;;;;;4990895;28;20069;-76
2022/07/07 05:12:09;;;;;;;2.75;0.43;;;16.90;99.90;;;;;;4993691;28;20077;-76
2022/07/07 05:14:34;;;;;;;2.50;0.47;;;16.90;99.90;;;;;;4992626;28;20069;-76
2022/07/07 05:17:00;;;;;;;6.13;0.50;;;16.90;99.90;;;;;;4986597;28;20033;-76
2022/07/07 05:19:26;;;;;;;3.17;0.50;;;17.00;99.90;;;;;;4985491;28;20027;-77
2022/07/07 05:21:52;;;;;;;5.00;0.55;;;17.00;99.90;;;;;;4987086;28;20514;-75
2022/07/07 05:24:18;;;;;;;3.70;0.50;;;17.10;99.90;;;;;;4987313;28;20038;-76
2022/07/07 05:26:44;;;;;;;5.95;0.60;;;17.00;99.90;;;;;;4986683;28;20030;-76
2022/07/07 05:29:09;;;;;;;7.43;0.88;;;17.10;99.90;;;;;;4990385;28;20101;-76
2022/07/07 05:31:35;;;;;;;2.85;0.60;;;17.00;99.90;;;;;;4987761;28;20474;-76
2022/07/07 05:34:00;;;;;;;5.07;0.50;;;17.00;99.90;;;;;;4990904;28;20026;-76
2022/07/07 05:36:26;;;;;;;4.32;0.50;;;16.90;99.90;;;;;;4986135;28;20168;-76
2022/07/07 05:38:51;;;;;;;4.72;0.43;;;16.80;99.90;;;;;;4992893;28;20033;-75
2022/07/07 05:41:17;;;;;;;3.65;0.70;;;16.80;99.90;;;;;;4989510;28;20057;-75
2022/07/07 05:43:44;;;;;;;5.30;0.70;;;16.70;99.90;;;;;;4992671;28;20402;-76
2022/07/07 05:46:10;;;;;;;4.68;0.38;;;16.70;99.90;;;;;;4991000;28;20026;-76
2022/07/07 05:48:36;;;;;;;5.15;0.40;;;16.70;99.90;;;;;;4982685;28;20044;-76
2022/07/07 05:51:01;;;;;;;4.07;0.40;;;16.70;99.90;;;;;;4987192;28;20464;-76
2022/07/07 05:53:27;;;;;;;6.07;0.38;;;16.80;99.90;;;;;;4988119;28;20034;-76
2022/07/07 05:55:52;;;;;;;5.68;0.40;;;16.80;99.90;;;;;;4988785;28;20126;-77
2022/07/07 05:58:18;;;;;;;7.10;0.80;;;16.80;99.90;;;;;;4991985;28;20062;-76
2022/07/07 06:00:44;;;;;;;4.40;0.40;;;16.80;99.90;;;;;;4990783;28;20022;-75
2022/07/07 06:03:10;;;;;;;5.90;0.40;;;16.80;99.90;;;;;;4991726;28;20078;-75
2022/07/07 06:05:36;;;;;;;6.15;0.60;;;16.90;99.90;;;;;;4993680;28;20041;-76
2022/07/07 06:08:01;;;;;;;5.75;0.30;;;16.90;99.90;;;;;;4992886;28;20026;-76
2022/07/07 06:10:27;;;;;;;5.97;0.38;;;17.00;99.90;;;;;;4991654;28;20034;-75
2022/07/07 06:12:53;;;;;;;6.55;0.40;;;17.10;99.90;;;;;;4986326;28;20022;-75
2022/07/07 06:15:20;;;;;;;2.28;0.20;;;17.20;99.90;;;;;;4992699;28;20032;-75
2022/07/07 06:17:47;;;;;;;7.38;0.55;;;17.20;99.90;;;;;;4992636;28;20486;-76
2022/07/07 06:20:13;;;;;;;5.10;0.45;;;17.20;99.90;;;;;;4992895;28;20026;-76
2022/07/07 06:22:39;;;;;;;5.65;0.60;;;17.30;99.90;;;;;;4989424;28;20027;-75
2022/07/07 06:25:08;;;;;;;8.98;0.50;;;17.30;99.90;;;;;;4987258;28;20077;-75
2022/07/07 06:27:35;;;;;;;6.38;0.40;;;17.30;99.90;;;;;;4992328;28;20076;-75
2022/07/07 06:30:01;;;;;;;6.45;0.30;;;17.30;99.90;;;;;;4991340;28;20041;-76
2022/07/07 06:32:26;;;;;;;5.88;0.55;;;17.40;99.90;;;;;;4988544;28;20053;-75
2022/07/07 06:34:52;;;;;;;4.55;0.38;;;17.40;99.90;;;;;;4992803;28;20022;-75
2022/07/07 06:37:18;;;;;;;9.40;0.65;;;17.30;99.90;;;;;;4989024;28;20035;-75
2022/07/07 06:39:44;;;;;;;2.55;0.30;;;17.30;99.90;;;;;;4989459;28;20660;-75
2022/07/07 06:42:09;;;;;;;2.35;0.20;;;17.20;99.90;;;;;;4989469;28;20038;-75
2022/07/07 06:44:35;;;;;;;2.70;0.20;;;17.10;99.90;;;;;;4992889;28;20018;-75
2022/07/07 06:47:01;;;;;;;1.92;0.17;;;17.10;99.90;;;;;;4989719;28;20029;-76
2022/07/07 06:49:27;;;;;;;3.22;0.20;;;17.20;99.90;;;;;;4988571;28;20394;-75
2022/07/07 06:51:53;;;;;;;2.90;0.30;;;17.30;99.90;;;;;;4986428;28;20042;-75
2022/07/07 06:54:19;;;;;;;8.57;0.30;;;17.40;99.90;;;;;;4989953;28;20034;-75
2022/07/07 06:56:45;;;;;;;6.40;0.38;;;17.50;99.90;;;;;;4974287;28;20027;-75
2022/07/07 06:59:10;;;;;;;3.85;0.30;;;17.50;99.90;;;;;;4989115;28;20034;-75
2022/07/07 07:01:36;;;;;;;5.25;0.40;;;17.50;99.90;;;;;;4998207;28;20542;-75
2022/07/07 07:04:01;;;;;;;3.42;0.30;;;17.50;99.90;;;;;;4986150;28;20490;-74
2022/07/07 07:06:30;;;;;;;4.10;0.30;;;17.50;99.90;;;;;;4990722;28;20076;-75
2022/07/07 07:08:56;;;;;;;4.30;0.40;;;17.70;99.90;;;;;;4988895;28;20113;-74
2022/07/07 07:11:23;;;;;;;7.60;0.30;;;17.90;99.90;;;;;;4992075;28;20038;-75
2022/07/07 07:13:49;;;;;;;5.82;0.35;;;17.90;99.90;;;;;;4992274;28;20026;-75
2022/07/07 07:16:15;;;;;;;6.82;0.40;;;18.00;99.90;;;;;;4989182;28;20368;-75
2022/07/07 07:18:41;;;;;;;3.10;0.38;;;18.00;99.90;;;;;;4990593;28;20467;-74
2022/07/07 07:21:06;;;;;;;5.28;0.73;;;18.00;99.90;;;;;;4985680;28;20093;-75
2022/07/07 07:23:32;;;;;;;5.60;0.38;;;18.00;99.90;;;;;;4973218;28;20035;-74
2022/07/07 07:26:12;;;;;;;3.83;0.30;;;17.90;99.90;;;;;;4988948;28;20077;-77
2022/07/07 07:28:38;;;;;;;8.07;0.60;;;17.70;99.90;;;;;;4987534;28;20080;-76
2022/07/07 07:31:04;;;;;;;4.43;0.40;;;17.50;99.90;;;;;;5011169;28;20076;-75
2022/07/07 07:33:31;;;;;;;4.47;0.40;;;17.40;99.90;;;;;;5000563;28;20125;-76
2022/07/07 07:35:57;;;;;;;6.10;0.52;;;17.40;99.90;;;;;;4991700;28;20034;-76
2022/07/07 07:38:22;;;;;;;4.43;0.60;;;17.40;99.90;;;;;;4991701;28;20041;-76
2022/07/07 07:40:48;;;;;;;4.22;0.40;;;17.60;99.90;;;;;;4992068;28;20026;-75
2022/07/07 07:43:13;;;;;;;5.95;0.40;;;17.70;99.90;;;;;;4989700;28;20104;-74
2022/07/07 07:45:39;;;;;;;4.60;0.82;;;17.90;99.90;;;;;;4972541;28;20098;-73
2022/07/07 07:48:05;;;;;;;6.82;0.40;;;18.10;99.90;;;;;;4991385;28;20033;-74
2022/07/07 07:50:31;;;;;;;4.43;0.40;;;18.30;99.90;;;;;;4991391;28;20188;-75
2022/07/07 07:52:57;;;;;;;4.47;0.30;;;18.50;99.90;;;;;;4992271;28;20177;-75
2022/07/07 07:55:24;;;;;;;5.03;0.50;;;18.60;99.90;;;;;;4991452;28;20097;-75
2022/07/07 07:57:51;;;;;;;2.60;0.20;;;18.70;99.90;;;;;;4992655;28;20028;-75
2022/07/07 08:00:19;;;;;;;2.88;0.20;;;18.90;99.90;;;;;;4993022;28;20510;-74
2022/07/07 08:02:46;;;;;;;4.00;0.43;;;18.90;99.90;;;;;;4994964;28;20034;-75
2022/07/07 08:05:12;;;;;;;1.88;0.30;;;18.90;99.90;;;;;;4995488;28;20023;-75
2022/07/07 08:07:40;;;;;;;2.92;0.55;;;18.90;99.90;;;;;;4995636;28;20026;-74
2022/07/07 08:10:08;;;;;;;2.15;0.20;;;18.90;99.90;;;;;;4995294;28;20054;-75
2022/07/07 08:12:34;;;;;;;2.33;0.20;;;18.90;99.90;;;;;;4993859;28;20130;-74
2022/07/07 08:15:00;;;;;;;1.67;0.20;;;18.80;99.90;;;;;;4994750;28;20077;-75
2022/07/07 08:17:25;;;;;;;3.95;0.30;;;18.80;99.90;;;;;;4995010;28;20022;-74
2022/07/07 08:19:51;;;;;;;2.67;0.22;;;18.90;99.90;;;;;;4995082;28;20026;-75
2022/07/07 08:22:16;;;;;;;1.67;0.30;;;19.20;99.90;;;;;;4994993;28;20026;-74
2022/07/07 08:24:42;;;;;;;1.58;0.20;;;19.40;99.90;;;;;;4995214;28;20499;-74
2022/07/07 08:27:08;;;;;;;4.50;0.30;;;19.60;99.90;;;;;;4989869;28;20032;-76
2022/07/07 08:29:37;;;;;;;6.30;0.40;;;19.80;99.90;;;;;;4995247;28;20057;-74
2022/07/07 08:32:05;;;;;;;5.97;0.35;;;19.90;99.90;;;;;;4993545;28;20483;-75
2022/07/07 08:34:30;;;;;;;3.03;0.20;;;19.80;99.90;;;;;;4994677;28;20080;-75
2022/07/07 08:36:56;;;;;;;4.28;0.30;;;19.70;99.90;;;;;;4995245;28;20109;-74
2022/07/07 08:39:21;;;;;;;3.90;0.30;;;19.60;99.90;;;;;;4994607;28;20030;-75
2022/07/07 08:41:47;;;;;;;4.70;0.20;;;19.40;99.90;;;;;;4994471;28;20039;-75
2022/07/07 08:44:14;;;;;;;2.90;0.17;;;19.40;99.90;;;;;;4994406;28;20023;-74
2022/07/07 08:46:41;;;;;;;3.28;0.22;;;19.30;99.90;;;;;;4993848;28;20034;-74
2022/07/07 08:49:09;;;;;;;1.95;0.38;;;19.30;99.90;;;;;;4994459;28;20034;-74
2022/07/07 08:51:38;;;;;;;2.03;0.13;;;19.30;99.90;;;;;;4994408;28;20145;-75
2022/07/07 08:54:04;;;;;;;2.15;0.20;;;19.30;99.90;;;;;;4994265;28;20018;-75
2022/07/07 08:56:31;;;;;;;5.32;0.20;;;19.40;99.90;;;;;;4993750;28;20088;-75
2022/07/07 08:58:57;;;;;;;3.17;0.22;;;19.50;99.90;;;;;;4994858;28;20398;-74
2022/07/07 09:01:23;;;;;;;2.55;0.20;;;19.70;99.90;;;;;;4993065;28;20034;-74
2022/07/07 09:03:48;;;;;;;2.00;0.10;;;19.80;99.90;;;;;;4993436;28;20027;-74
2022/07/07 09:06:15;;;;;;;3.63;0.40;;;19.90;99.90;;;;;;4993957;28;20060;-74
2022/07/07 09:08:40;;;;;;;2.55;0.10;;;19.90;99.90;;;;;;4994453;28;20050;-75
2022/07/07 09:11:09;;;;;;;2.10;0.20;;;19.90;99.90;;;;;;4986930;28;20081;-74
2022/07/07 09:13:35;;;;;;;2.50;0.20;;;19.90;99.90;;;;;;4994265;28;20022;-74
2022/07/07 09:16:04;;;;;;;1.38;0.10;;;19.80;99.90;;;;;;4994451;28;20076;-74
2022/07/07 09:18:35;;;;;;;3.50;0.22;;;19.80;99.90;;;;;;4993357;28;20030;-74
2022/07/07 09:21:25;;;;;;;2.60;0.25;;;19.70;99.90;;;;;;4994258;28;20098;-75
2022/07/07 09:23:56;;;;;;;2.38;0.20;;;19.50;99.90;;;;;;4994205;28;20034;-76
2022/07/07 09:26:39;;;;;;;1.88;0.20;;;19.20;99.90;;;;;;4993178;28;20057;-76
2022/07/07 09:29:10;;;;;;;2.83;0.10;;;19.00;99.90;;;;;;5002762;28;20101;-76
2022/07/07 09:31:55;;;;;;;2.93;0.20;;;19.00;99.90;;;;;;5013902;28;20041;-75
2022/07/07 09:34:23;;;;;;;2.85;0.40;;;19.10;99.90;;;;;;4992422;28;20290;-76
2022/07/07 09:39:50;;;;;;;1.77;0.10;;;19.40;99.90;;;;;;4993389;28;20498;-74
2022/07/07 09:42:19;;;;;;;1.77;0.20;;;19.60;99.90;;;;;;4989421;28;20065;-75
2022/07/07 09:44:47;;;;;;;0.93;0.10;;;19.50;99.90;;;;;;4994002;28;20026;-75
2022/07/07 09:47:13;;;;;;;1.17;0.10;;;19.50;99.90;;;;;;4991337;28;20026;-75
2022/07/07 09:49:42;;;;;;;1.15;0.10;;;19.60;99.90;;;;;;4993065;28;20099;-76
2022/07/07 09:52:18;;;;;;;3.05;0.20;;;19.60;99.90;;;;;;4992961;28;20061;-75
2022/07/07 09:54:49;;;;;;;1.20;0.10;;;19.70;99.90;;;;;;4993648;28;20026;-75
2022/07/07 09:57:18;;;;;;;0.60;0.10;;;19.80;99.90;;;;;;4982434;28;20031;-76
2022/07/07 09:59:44;;;;;;;1.08;0.10;;;19.80;99.90;;;;;;4974269;28;20038;-76
2022/07/07 10:02:24;;;;;;;1.10;0.10;;;19.80;99.90;;;;;;4974166;28;20122;-75
2022/07/07 10:04:56;;;;;;;1.77;0.10;;;19.80;99.90;;;;;;4987394;28;20106;-76
2022/07/07 10:07:23;;;;;;;2.50;0.10;;;19.90;99.90;;;;;;4990359;28;20137;-75
2022/07/07 10:09:54;;;;;;;2.53;0.10;;;20.10;99.90;;;;;;4992815;28;20030;-76
2022/07/07 10:12:21;;;;;;;1.20;0.10;;;20.40;99.90;;;;;;4992975;28;20038;-76
2022/07/07 10:14:49;;;;;;;1.00;0.10;;;20.40;99.90;;;;;;4991509;28;20105;-76
2022/07/07 10:17:16;;;;;;;1.08;0.10;;;20.40;99.90;;;;;;4992683;28;20141;-76
2022/07/07 10:19:42;;;;;;;2.53;0.20;;;20.40;99.90;;;;;;4992765;28;20019;-76
2022/07/07 10:22:10;;;;;;;2.35;0.13;;;20.50;99.90;;;;;;4988206;28;20034;-76
2022/07/07 10:24:37;;;;;;;1.33;0.30;;;20.50;99.90;;;;;;4990604;28;20417;-76
2022/07/07 10:27:04;;;;;;;2.42;0.20;;;20.60;99.90;;;;;;4992491;28;20032;-76
2022/07/07 10:29:41;;;;;;;2.78;0.10;;;20.60;99.90;;;;;;4988555;28;20030;-76
2022/07/07 10:32:40;;;;;;;1.17;0.10;;;20.60;99.90;;;;;;4991343;28;20533;-76
2022/07/07 10:35:13;;;;;;;5.53;0.10;;;20.50;99.90;;;;;;4988074;28;20165;-76
2022/07/07 10:37:53;;;;;;;2.55;0.20;;;20.20;99.90;;;;;;4990558;28;20061;-76
2022/07/07 10:40:29;;;;;;;1.92;0.10;;;19.80;99.90;;;;;;4991344;28;20035;-76
2022/07/07 10:43:23;;;;;;;2.10;0.10;;;19.40;99.90;;;;;;4992917;28;20026;-74
2022/07/07 10:45:52;;;;;;;1.50;0.10;;;19.20;99.90;;;;;;4992023;28;20026;-76
2022/07/07 10:48:39;;;;;;;1.27;0.10;;;19.20;99.90;;;;;;4990109;28;20052;-76
2022/07/07 10:51:15;;;;;;;0.65;0.10;;;19.30;99.90;;;;;;4991966;28;20046;-76
2022/07/07 10:54:06;;;;;;;0.47;0.10;;;19.60;99.90;;;;;;4992734;28;20419;-76
2022/07/07 10:57:01;;;;;;;1.10;0.20;;;20.00;99.90;;;;;;4988519;28;20049;-76
2022/07/07 10:59:27;;;;;;;0.77;0.10;;;20.40;99.90;;;;;;4938880;28;20043;-76
2022/07/07 11:02:02;;;;;;;0.63;0.20;;;20.80;99.90;;;;;;4992175;28;20149;-75
2022/07/07 11:04:46;;;;;;;2.70;0.40;;;21.00;99.90;;;;;;4990896;28;20026;-76
2022/07/07 11:07:14;;;;;;;0.68;0.20;;;21.10;99.90;;;;;;4990838;28;20046;-74
2022/07/07 11:10:03;;;;;;;0.70;0.10;;;21.10;99.90;;;;;;4991371;28;20474;-74
2022/07/07 11:12:38;;;;;;;3.22;0.30;;;20.90;99.90;;;;;;4991136;28;20031;-74
2022/07/07 11:15:22;;;;;;;1.98;0.30;;;20.70;99.90;;;;;;4985179;28;20101;-75
2022/07/07 11:17:56;;;;;;;1.77;0.30;;;20.10;99.90;;;;;;4991614;28;20054;-76
2022/07/07 11:20:24;;;;;;;2.78;0.20;;;19.80;99.90;;;;;;4991219;28;20506;-76
2022/07/07 11:22:54;;;;;;;5.30;0.45;;;19.60;99.90;;;;;;4991266;28;20049;-75
2022/07/07 11:25:22;;;;;;;4.90;0.95;;;19.50;99.90;;;;;;4991498;28;20034;-76
2022/07/07 11:27:49;;;;;;;1.60;0.30;;;19.30;99.90;;;;;;4992253;28;20022;-74
2022/07/07 11:30:16;;;;;;;3.05;0.30;;;19.00;99.90;;;;;;4981412;28;20026;-76
2022/07/07 11:32:42;;;;;;;2.33;0.30;;;18.80;99.90;;;;;;4993869;28;20486;-77
2022/07/07 11:35:10;;;;;;;2.08;0.40;;;18.70;99.90;;;;;;4995961;28;20485;-76
2022/07/07 11:37:38;;;;;;;0.65;0.17;;;18.70;99.90;;;;;;4995345;28;20378;-76
2022/07/07 11:40:05;;;;;;;1.75;0.20;;;18.80;99.90;;;;;;4983008;28;20022;-76
2022/07/07 11:42:35;;;;;;;2.03;0.20;;;19.00;99.90;;;;;;4994368;28;20030;-77
2022/07/07 11:45:02;;;;;;;1.67;0.20;;;19.30;99.90;;;;;;4995680;28;20113;-76
2022/07/07 11:47:33;;;;;;;0.68;0.20;;;19.50;99.90;;;;;;4993831;28;20069;-76
2022/07/07 11:49:58;;;;;;;3.05;0.30;;;19.50;99.90;;;;;;4995825;28;20050;-76
2022/07/07 11:52:24;;;;;;;4.22;0.50;;;19.40;99.90;;;;;;4995027;28;20506;-76
2022/07/07 11:54:50;;;;;;;2.17;0.30;;;19.40;99.90;;;;;;4995482;28;20026;-76
2022/07/07 11:57:31;;;;;;;1.65;0.20;;;19.30;99.90;;;;;;4994880;28;20038;-76
2022/07/07 12:00:17;;;;;;;2.72;0.30;;;19.40;99.90;;;;;;4995944;28;20437;-76
2022/07/07 12:02:45;;;;;;;0.93;0.20;;;19.40;99.90;;;;;;4993329;28;20018;-77
2022/07/07 12:05:11;;;;;;;3.50;0.30;;;19.40;99.90;;;;;;4994664;28;20041;-76
2022/07/07 12:07:38;;;;;;;1.35;0.30;;;19.60;99.90;;;;;;4995168;28;20029;-76
2022/07/07 12:10:04;;;;;;;2.38;0.30;;;19.80;99.90;;;;;;4994714;28;20034;-77
2022/07/07 12:12:29;;;;;;;2.28;0.20;;;19.80;99.90;;;;;;4995854;28;20050;-77
2022/07/07 12:14:55;;;;;;;4.43;0.85;;;19.80;99.90;;;;;;4995434;28;20416;-76
2022/07/07 12:17:38;;;;;;;3.92;0.30;;;19.80;99.90;;;;;;4995267;28;20611;-77
2022/07/07 12:20:04;;;;;;;1.98;0.30;;;19.70;99.90;;;;;;4994328;28;20030;-77
2022/07/07 12:22:40;;;;;;;4.05;0.40;;;19.70;99.90;;;;;;4995182;28;20033;-77
2022/07/07 12:25:09;;;;;;;1.23;0.30;;;19.80;99.90;;;;;;4994591;28;20109;-77
2022/07/07 12:27:50;;;;;;;2.97;0.30;;;19.60;99.90;;;;;;4995316;28;20479;-77
2022/07/07 12:30:16;;;;;;;3.88;0.30;;;19.60;99.90;;;;;;4994575;28;20019;-77
2022/07/07 12:32:44;;;;;;;2.92;0.30;;;19.60;99.90;;;;;;4994887;28;20441;-77
2022/07/07 12:35:25;;;;;;;2.63;0.30;;;19.80;99.90;;;;;;4992831;28;20446;-78
2022/07/07 12:37:51;;;;;;;4.07;0.40;;;19.90;99.90;;;;;;4993450;28;20030;-77
2022/07/07 12:40:16;;;;;;;2.58;0.30;;;20.20;99.90;;;;;;4994811;28;20096;-77
2022/07/07 12:42:45;;;;;;;2.65;0.28;;;20.30;99.90;;;;;;4993817;28;20379;-76
2022/07/07 12:45:17;;;;;;;4.40;0.30;;;20.40;99.90;;;;;;4993335;28;20042;-77
2022/07/07 12:47:48;;;;;;;6.53;0.50;;;20.40;99.90;;;;;;4992322;28;20042;-77
2022/07/07 12:50:15;;;;;;;5.45;0.40;;;20.30;99.90;;;;;;4988902;28;20402;-77
2022/07/07 12:52:41;;;;;;;7.05;0.65;;;20.10;99.90;;;;;;4992061;28;20368;-77
2022/07/07 12:55:13;;;;;;;3.85;0.70;;;20.00;99.90;;;;;;4993457;28;20188;-77